createdAt,value
2022-10-25T00:00:58.162Z,2.03
2022-10-25T00:03:25.591Z,1.80
2022-10-25T00:05:53.023Z,1.50
2022-10-25T00:08:20.339Z,1.80
2022-10-25T00:10:47.683Z,1.85
2022-10-25T00:13:15.031Z,1.73
2022-10-25T00:15:43.061Z,1.90
2022-10-25T00:18:10.372Z,1.98
2022-10-25T00:20:38.268Z,1.80
2022-10-25T00:23:05.727Z,1.70
2022-10-25T00:25:33.101Z,1.60
2022-10-25T00:28:00.471Z,1.60
2022-10-25T00:30:27.836Z,1.90
2022-10-25T00:32:55.157Z,1.60
2022-10-25T00:35:22.479Z,1.63
2022-10-25T00:37:50.051Z,1.52
2022-10-25T00:40:17.799Z,1.73
2022-10-25T00:42:45.299Z,1.88
2022-10-25T00:45:25.691Z,1.50
2022-10-25T00:48:05.867Z,1.70
2022-10-25T00:50:44.959Z,1.70
2022-10-25T00:53:15.090Z,1.80
2022-10-25T00:55:45.519Z,1.77
2022-10-25T00:58:20.635Z,1.90
2022-10-25T01:00:48.364Z,2.00
2022-10-25T01:03:16.592Z,1.70
2022-10-25T01:05:44.273Z,2.05
2022-10-25T01:08:11.620Z,2.35
2022-10-25T01:10:39.067Z,2.10
2022-10-25T01:13:06.384Z,2.15
2022-10-25T01:15:44.997Z,1.85
2022-10-25T01:18:17.718Z,2.15
2022-10-25T01:20:54.018Z,2.05
2022-10-25T01:23:24.185Z,1.73
2022-10-25T01:26:03.575Z,1.63
2022-10-25T01:28:49.076Z,1.88
2022-10-25T01:31:45.603Z,1.98
2022-10-25T01:34:17.612Z,2.00
2022-10-25T01:37:08.242Z,2.00
2022-10-25T01:39:41.634Z,1.63
2022-10-25T01:42:24.387Z,1.70
2022-10-25T01:45:08.480Z,2.15
2022-10-25T01:47:50.602Z,1.38
2022-10-25T01:50:34.834Z,1.33
2022-10-25T01:53:02.170Z,1.50
2022-10-25T01:55:38.278Z,1.35
2022-10-25T01:58:17.573Z,1.73
2022-10-25T02:01:04.432Z,1.40
2022-10-25T02:03:53.163Z,1.60
2022-10-25T02:06:42.415Z,1.33
2022-10-25T02:09:33.885Z,2.10
2022-10-25T02:12:01.203Z,2.10
2022-10-25T02:14:34.311Z,1.38
2022-10-25T02:17:27.110Z,1.60
2022-10-25T02:19:57.111Z,1.38
2022-10-25T02:22:25.954Z,1.63
2022-10-25T02:24:53.319Z,1.30
2022-10-25T02:27:20.673Z,1.67
2022-10-25T02:29:47.987Z,1.05
2022-10-25T02:32:15.337Z,1.40
2022-10-25T02:34:42.682Z,1.30
2022-10-25T02:37:09.999Z,1.20
2022-10-25T02:39:37.294Z,1.20
2022-10-25T02:42:05.743Z,1.40
2022-10-25T02:44:33.177Z,1.40
2022-10-25T02:47:00.500Z,1.67
2022-10-25T02:49:28.461Z,1.30
2022-10-25T02:51:55.806Z,1.33
2022-10-25T02:54:23.211Z,1.35
2022-10-25T02:56:52.411Z,1.17
2022-10-25T02:59:21.208Z,1.23
2022-10-25T03:01:48.970Z,1.40
2022-10-25T03:04:16.365Z,1.60
2022-10-25T03:06:43.641Z,1.45
2022-10-25T03:09:10.914Z,1.35
2022-10-25T03:11:38.204Z,1.20
2022-10-25T03:14:05.484Z,1.20
2022-10-25T03:16:32.784Z,1.20
2022-10-25T03:19:00.103Z,1.30
2022-10-25T03:21:27.480Z,1.20
2022-10-25T03:23:54.915Z,1.30
2022-10-25T03:26:22.204Z,1.20
2022-10-25T03:28:49.487Z,1.40
2022-10-25T03:31:17.546Z,1.20
2022-10-25T03:33:44.926Z,1.30
2022-10-25T03:36:12.282Z,1.35
2022-10-25T03:38:39.590Z,1.20
2022-10-25T03:41:06.915Z,1.17
2022-10-25T03:43:34.178Z,1.40
2022-10-25T03:46:01.519Z,0.95
2022-10-25T03:48:28.878Z,1.40
2022-10-25T03:50:56.181Z,1.15
2022-10-25T03:53:23.501Z,1.10
2022-10-25T03:55:50.860Z,1.20
2022-10-25T03:58:19.716Z,1.27
2022-10-25T04:00:47.026Z,1.30
2022-10-25T04:03:14.351Z,1.50
2022-10-25T04:05:41.619Z,1.20
2022-10-25T04:08:08.895Z,1.20
2022-10-25T04:10:36.187Z,1.00
2022-10-25T04:13:03.697Z,1.20
2022-10-25T04:15:31.061Z,1.30
2022-10-25T04:17:58.371Z,1.48
2022-10-25T04:20:25.703Z,1.23
2022-10-25T04:22:56.739Z,1.42
2022-10-25T04:25:25.166Z,1.10
2022-10-25T04:27:52.467Z,1.40
2022-10-25T04:30:19.847Z,1.33
2022-10-25T04:32:47.492Z,1.02
2022-10-25T04:35:15.097Z,1.20
2022-10-25T04:37:42.420Z,1.40
2022-10-25T04:40:10.522Z,1.30
2022-10-25T04:42:37.822Z,1.70
2022-10-25T04:45:05.455Z,1.63
2022-10-25T04:47:33.858Z,1.40
2022-10-25T04:50:01.131Z,1.23
2022-10-25T04:52:31.705Z,1.58
2022-10-25T04:54:59.686Z,1.70
2022-10-25T04:57:27.032Z,1.50
2022-10-25T04:59:56.256Z,1.50
2022-10-25T05:02:24.255Z,1.40
2022-10-25T05:04:51.614Z,1.42
2022-10-25T05:07:19.528Z,3.88
2022-10-25T05:09:47.623Z,2.13
2022-10-25T05:12:15.165Z,3.00
2022-10-25T05:14:42.550Z,3.20
2022-10-25T05:17:09.838Z,2.22
2022-10-25T05:19:37.154Z,1.80
2022-10-25T05:22:04.499Z,1.70
2022-10-25T05:24:31.862Z,1.48
2022-10-25T05:26:59.147Z,7.93
2022-10-25T05:29:26.523Z,2.20
2022-10-25T05:31:53.894Z,1.63
2022-10-25T05:34:21.206Z,1.67
2022-10-25T05:36:48.507Z,1.80
2022-10-25T05:39:15.855Z,1.40
2022-10-25T05:41:43.196Z,1.65
2022-10-25T05:44:10.575Z,1.60
2022-10-25T05:46:37.839Z,1.45
2022-10-25T05:49:05.146Z,1.40
2022-10-25T05:51:35.765Z,1.48
2022-10-25T05:54:09.313Z,1.35
2022-10-25T05:56:36.712Z,1.60
2022-10-25T05:59:08.605Z,1.42
2022-10-25T06:01:37.110Z,1.25
2022-10-25T06:04:04.655Z,1.40
2022-10-25T06:06:31.998Z,1.50
2022-10-25T06:08:59.733Z,1.50
2022-10-25T06:11:27.734Z,1.70
2022-10-25T06:13:55.136Z,1.40
2022-10-25T06:16:22.719Z,1.55
2022-10-25T06:18:50.086Z,2.25
2022-10-25T06:21:19.333Z,1.73
2022-10-25T06:23:48.580Z,1.77
2022-10-25T06:26:23.271Z,2.10
2022-10-25T06:28:57.409Z,1.90
2022-10-25T06:31:24.793Z,1.60
2022-10-25T06:33:52.255Z,1.50
2022-10-25T06:36:23.416Z,1.83
2022-10-25T06:38:51.079Z,1.67
2022-10-25T06:41:23.148Z,1.98
2022-10-25T06:43:50.627Z,1.75
2022-10-25T06:46:24.970Z,2.13
2022-10-25T06:51:19.872Z,1.80
2022-10-25T06:53:47.306Z,1.70
2022-10-25T06:56:15.261Z,2.00
2022-10-25T06:58:42.701Z,1.60
2022-10-25T07:01:14.754Z,1.85
2022-10-25T07:03:42.491Z,1.67
2022-10-25T07:06:17.151Z,1.50
2022-10-25T07:08:45.929Z,2.10
2022-10-25T07:11:15.331Z,1.63
2022-10-25T07:13:42.615Z,1.90
2022-10-25T07:16:11.693Z,2.53
2022-10-25T07:18:39.010Z,2.72
2022-10-25T07:21:20.272Z,2.10
2022-10-25T07:23:47.930Z,1.45
2022-10-25T07:26:20.086Z,1.52
2022-10-25T07:28:47.917Z,1.83
2022-10-25T07:31:29.472Z,1.80
2022-10-25T07:33:58.450Z,1.70
2022-10-25T07:36:25.850Z,1.30
2022-10-25T07:38:53.451Z,1.50
2022-10-25T07:41:20.755Z,1.45
2022-10-25T07:43:48.089Z,1.35
2022-10-25T07:46:15.438Z,1.58
2022-10-25T07:48:42.786Z,1.25
2022-10-25T07:51:11.552Z,1.30
2022-10-25T07:53:39.011Z,1.60
2022-10-25T07:56:06.801Z,2.05
2022-10-25T07:58:34.881Z,1.50
2022-10-25T08:01:07.441Z,1.60
2022-10-25T08:03:35.190Z,1.50
2022-10-25T08:06:02.661Z,1.65
2022-10-25T08:08:30.043Z,1.60
2022-10-25T08:10:57.496Z,1.40
2022-10-25T08:13:24.899Z,1.60
2022-10-25T08:15:53.075Z,1.52
2022-10-25T08:18:20.587Z,1.45
2022-10-25T08:21:03.973Z,1.70
2022-10-25T08:23:32.398Z,1.73
2022-10-25T08:26:00.662Z,1.63
2022-10-25T08:28:28.297Z,1.40
2022-10-25T08:30:55.808Z,1.25
2022-10-25T08:33:24.067Z,1.20
2022-10-25T08:35:51.951Z,1.10
2022-10-25T08:38:19.377Z,1.25
2022-10-25T08:41:01.922Z,1.38
2022-10-25T08:44:10.581Z,1.40
2022-10-25T08:46:59.136Z,1.00
2022-10-25T08:49:32.682Z,1.40
2022-10-25T08:52:00.368Z,1.10
2022-10-25T08:54:38.823Z,1.48
2022-10-25T08:57:24.960Z,1.45
2022-10-25T08:59:56.644Z,1.27
2022-10-25T09:02:38.778Z,1.20
2022-10-25T09:05:17.694Z,1.40
2022-10-25T09:08:02.635Z,1.25
2022-10-25T09:10:33.661Z,1.13
2022-10-25T09:13:30.266Z,1.10
2022-10-25T09:16:16.987Z,1.45
2022-10-25T09:18:54.988Z,1.30
2022-10-25T09:21:26.194Z,1.00
2022-10-25T09:24:10.735Z,1.42
2022-10-25T09:26:41.316Z,1.58
2022-10-25T09:29:38.917Z,1.33
2022-10-25T09:32:16.394Z,1.20
2022-10-25T09:34:43.747Z,1.02
2022-10-25T09:37:19.439Z,1.20
2022-10-25T09:39:49.462Z,1.05
2022-10-25T09:42:47.166Z,1.20
2022-10-25T09:45:42.053Z,1.10
2022-10-25T09:48:27.799Z,0.95
2022-10-25T09:51:26.248Z,0.85
2022-10-25T09:53:53.552Z,0.70
2022-10-25T09:56:20.919Z,0.70
2022-10-25T09:58:48.981Z,0.73
2022-10-25T10:01:23.654Z,0.93
2022-10-25T10:03:54.727Z,1.08
2022-10-25T10:06:32.047Z,0.82
2022-10-25T10:09:04.486Z,1.08
2022-10-25T10:11:32.287Z,0.95
2022-10-25T10:14:27.394Z,1.10
2022-10-25T10:19:23.962Z,0.90
2022-10-25T10:22:14.289Z,0.80
2022-10-25T10:24:43.094Z,0.57
2022-10-25T10:27:12.155Z,0.70
2022-10-25T10:30:02.177Z,0.93
2022-10-25T10:32:31.743Z,0.90
2022-10-25T10:34:59.215Z,0.82
2022-10-25T10:37:27.612Z,1.67
2022-10-25T10:39:56.526Z,0.80
2022-10-25T10:45:08.687Z,0.90
2022-10-25T10:47:36.162Z,0.95
2022-10-25T10:50:22.028Z,2.50
2022-10-25T10:53:00.974Z,1.00
2022-10-25T10:55:32.003Z,0.85
2022-10-25T10:58:26.749Z,1.08
2022-10-25T11:01:05.298Z,0.98
2022-10-25T11:03:53.493Z,0.80
2022-10-25T11:06:35.518Z,0.90
2022-10-25T11:09:19.410Z,0.70
2022-10-25T11:12:07.461Z,0.90
2022-10-25T11:14:34.794Z,0.98
2022-10-25T11:17:18.626Z,0.73
2022-10-25T11:20:19.324Z,0.80
2022-10-25T11:22:53.636Z,0.95
2022-10-25T11:28:00.306Z,1.30
2022-10-25T11:31:01.393Z,1.08
2022-10-25T11:33:45.423Z,0.70
2022-10-25T11:36:42.123Z,0.77
2022-10-25T11:39:48.209Z,0.75
2022-10-25T11:42:28.816Z,0.80
2022-10-25T11:45:21.050Z,1.00
2022-10-25T11:48:00.702Z,1.08
2022-10-25T11:50:40.087Z,0.90
2022-10-25T11:53:16.120Z,0.90
2022-10-25T11:56:02.341Z,1.00
2022-10-25T11:58:46.108Z,1.05
2022-10-25T12:01:35.179Z,1.05
2022-10-25T12:04:34.765Z,0.80
2022-10-25T12:07:22.783Z,1.00
2022-10-25T12:09:53.299Z,1.30
2022-10-25T12:12:23.940Z,0.80
2022-10-25T12:14:53.091Z,0.90
2022-10-25T12:17:27.523Z,0.80
2022-10-25T12:22:46.332Z,0.70
2022-10-25T12:25:23.448Z,1.00
2022-10-25T12:28:06.547Z,0.90
2022-10-25T12:30:34.132Z,0.80
2022-10-25T12:33:34.768Z,0.70
2022-10-25T12:36:07.345Z,0.70
2022-10-25T12:38:36.594Z,0.60
2022-10-25T12:41:13.302Z,0.63
2022-10-25T12:44:22.446Z,0.80
2022-10-25T12:47:01.755Z,1.10
2022-10-25T12:49:54.238Z,0.73
2022-10-25T12:52:30.329Z,1.08
2022-10-25T12:55:35.382Z,0.73
2022-10-25T12:58:20.879Z,1.05
2022-10-25T13:01:07.048Z,1.23
2022-10-25T13:03:59.352Z,0.95
2022-10-25T13:06:31.272Z,0.90
2022-10-25T13:09:09.779Z,0.80
2022-10-25T13:12:18.420Z,0.73
2022-10-25T13:14:53.004Z,0.90
2022-10-25T13:17:20.322Z,0.90
2022-10-25T13:19:55.566Z,0.77
2022-10-25T13:22:34.177Z,0.80
2022-10-25T13:25:27.989Z,0.80
2022-10-25T13:28:31.449Z,1.00
2022-10-25T13:31:34.889Z,0.85
2022-10-25T13:34:14.496Z,0.60
2022-10-25T13:37:30.639Z,1.08
2022-10-25T13:43:01.144Z,0.70
2022-10-25T13:45:35.844Z,1.05
2022-10-25T13:48:31.199Z,1.10
2022-10-25T13:51:11.931Z,0.80
2022-10-25T13:53:43.568Z,0.60
2022-10-25T13:56:17.996Z,0.57
2022-10-25T14:01:16.715Z,0.70
2022-10-25T14:04:02.308Z,0.70
2022-10-25T14:06:30.205Z,0.85
2022-10-25T14:09:22.078Z,0.70
2022-10-25T14:12:11.945Z,0.63
2022-10-25T14:15:03.452Z,0.80
2022-10-25T14:17:41.659Z,0.60
2022-10-25T14:22:50.814Z,0.80
2022-10-25T14:25:18.094Z,0.85
2022-10-25T14:27:45.470Z,0.65
2022-10-25T14:30:12.863Z,0.70
2022-10-25T14:32:48.053Z,1.00
2022-10-25T14:35:15.890Z,1.13
2022-10-25T14:37:43.477Z,0.77
2022-10-25T14:40:24.514Z,0.68
2022-10-25T14:42:54.355Z,0.80
2022-10-25T14:45:26.050Z,0.80
2022-10-25T14:47:53.470Z,0.70
2022-10-25T14:50:24.577Z,1.27
2022-10-25T14:52:51.954Z,0.85
2022-10-25T14:55:28.618Z,0.95
2022-10-25T14:57:55.953Z,0.88
2022-10-25T15:00:23.479Z,0.80
2022-10-25T15:02:54.664Z,0.80
2022-10-25T15:05:23.295Z,0.90
2022-10-25T15:07:57.285Z,1.33
2022-10-25T15:10:30.917Z,0.98
2022-10-25T15:13:12.620Z,1.00
2022-10-25T15:15:45.034Z,0.70
2022-10-25T15:18:42.397Z,0.80
2022-10-25T15:21:14.633Z,1.33
2022-10-25T15:23:43.046Z,1.10
2022-10-25T15:26:49.972Z,0.73
2022-10-25T15:29:45.011Z,4.40
2022-10-25T15:34:45.304Z,1.20
2022-10-25T15:37:13.335Z,1.20
2022-10-25T15:42:15.344Z,1.30
2022-10-25T15:44:43.038Z,1.15
2022-10-25T15:47:41.099Z,0.95
2022-10-25T15:50:17.164Z,1.02
2022-10-25T15:52:45.015Z,1.70
2022-10-25T15:55:34.217Z,1.30
2022-10-25T15:58:01.649Z,0.90
2022-10-25T16:00:30.918Z,1.13
2022-10-25T16:02:58.705Z,1.13
2022-10-25T16:05:33.626Z,1.20
2022-10-25T16:08:01.195Z,1.25
2022-10-25T16:10:28.903Z,1.20
2022-10-25T16:13:01.869Z,1.30
2022-10-25T16:15:29.323Z,1.20
2022-10-25T16:17:56.685Z,1.35
2022-10-25T16:20:26.024Z,1.10
2022-10-25T16:22:54.147Z,1.13
2022-10-25T16:25:21.569Z,1.63
2022-10-25T16:27:50.431Z,3.50
2022-10-25T16:30:22.628Z,3.72
2022-10-25T16:32:50.535Z,3.38
2022-10-25T16:35:21.788Z,3.38
2022-10-25T16:37:49.373Z,3.35
2022-10-25T16:40:17.475Z,2.63
2022-10-25T16:42:44.974Z,2.90
2022-10-25T16:45:26.909Z,3.33
2022-10-25T16:47:58.012Z,3.78
2022-10-25T16:50:28.849Z,3.20
2022-10-25T16:53:00.715Z,3.13
2022-10-25T16:55:30.365Z,3.60
2022-10-25T16:57:58.334Z,3.03
2022-10-25T17:00:26.276Z,3.58
2022-10-25T17:02:53.680Z,3.42
2022-10-25T17:05:23.413Z,3.20
2022-10-25T17:08:04.894Z,3.40
2022-10-25T17:10:32.206Z,3.60
2022-10-25T17:13:03.520Z,3.65
2022-10-25T17:15:31.286Z,3.78
2022-10-25T17:17:58.772Z,3.60
2022-10-25T17:20:26.145Z,3.42
2022-10-25T17:22:54.614Z,3.55
2022-10-25T17:25:21.930Z,3.15
2022-10-25T17:27:53.002Z,3.50
2022-10-25T17:30:20.656Z,3.88
2022-10-25T17:32:48.091Z,3.95
2022-10-25T17:35:15.459Z,3.22
2022-10-25T17:37:44.455Z,3.25
2022-10-25T17:40:13.759Z,3.47
2022-10-25T17:42:41.267Z,3.45
2022-10-25T17:45:09.243Z,2.90
2022-10-25T17:47:37.631Z,3.78
2022-10-25T17:50:05.593Z,3.10
2022-10-25T17:52:32.937Z,3.50
2022-10-25T17:55:00.339Z,3.33
2022-10-25T17:57:27.727Z,3.70
2022-10-25T17:59:55.378Z,4.68
2022-10-25T18:02:22.851Z,4.30
2022-10-25T18:05:02.261Z,3.60
2022-10-25T18:07:37.942Z,4.18
2022-10-25T18:10:05.636Z,3.75
2022-10-25T18:12:32.951Z,3.65
2022-10-25T18:15:00.251Z,4.25
2022-10-25T18:17:27.622Z,3.80
2022-10-25T18:19:54.919Z,3.90
2022-10-25T18:22:22.266Z,3.72
2022-10-25T18:24:49.592Z,3.65
2022-10-25T18:27:16.954Z,3.58
2022-10-25T18:29:44.290Z,3.72
2022-10-25T18:32:11.704Z,4.72
2022-10-25T18:34:39.038Z,5.05
2022-10-25T18:37:06.883Z,4.65
2022-10-25T18:39:34.187Z,5.57
2022-10-25T18:42:01.535Z,5.85
2022-10-25T18:44:28.878Z,6.10
2022-10-25T18:46:56.209Z,5.20
2022-10-25T18:49:23.605Z,5.32
2022-10-25T18:51:51.000Z,4.13
2022-10-25T18:54:18.515Z,4.60
2022-10-25T18:56:45.794Z,4.85
2022-10-25T18:59:13.498Z,4.82
2022-10-25T19:01:41.118Z,5.20
2022-10-25T19:04:08.475Z,5.90
2022-10-25T19:06:35.809Z,6.50
2022-10-25T19:09:03.893Z,6.82
2022-10-25T19:11:32.754Z,6.50
2022-10-25T19:14:00.296Z,6.53
2022-10-25T19:16:27.707Z,6.90
2022-10-25T19:18:54.982Z,6.32
2022-10-25T19:21:22.329Z,5.40
2022-10-25T19:23:49.654Z,5.57
2022-10-25T19:26:18.752Z,5.45
2022-10-25T19:28:47.453Z,5.13
2022-10-25T19:31:16.624Z,5.40
2022-10-25T19:33:50.967Z,5.05
2022-10-25T19:36:18.434Z,5.90
2022-10-25T19:38:46.092Z,5.47
2022-10-25T19:41:15.295Z,5.10
2022-10-25T19:43:42.627Z,5.35
2022-10-25T19:46:10.602Z,5.57
2022-10-25T19:48:37.930Z,5.95
2022-10-25T19:51:12.320Z,5.40
2022-10-25T19:56:08.995Z,5.25
2022-10-25T19:58:36.562Z,5.32
2022-10-25T20:01:09.286Z,4.80
2022-10-25T20:03:37.035Z,4.40
2022-10-25T20:06:06.910Z,4.57
2022-10-25T20:08:35.358Z,4.78
2022-10-25T20:11:02.739Z,4.75
2022-10-25T20:13:30.275Z,3.58
2022-10-25T20:19:45.696Z,4.13
2022-10-25T20:22:41.562Z,4.45
2022-10-25T20:26:02.672Z,4.60
2022-10-25T20:28:57.879Z,4.00
2022-10-25T20:31:25.833Z,3.60
2022-10-25T20:33:53.326Z,4.28
2022-10-25T20:36:20.729Z,4.03
2022-10-25T20:38:48.095Z,4.35
2022-10-25T20:41:23.620Z,4.20
2022-10-25T20:43:52.516Z,4.45
2022-10-25T20:46:20.681Z,3.90
2022-10-25T20:48:48.149Z,4.00
2022-10-25T20:51:15.804Z,4.07
2022-10-25T20:53:44.364Z,3.90
2022-10-25T20:56:12.487Z,3.55
2022-10-25T20:58:39.839Z,3.60
2022-10-25T21:01:07.356Z,3.90
2022-10-25T21:03:34.739Z,3.67
2022-10-25T21:06:03.995Z,3.65
2022-10-25T21:08:31.697Z,3.63
2022-10-25T21:11:04.186Z,4.22
2022-10-25T21:13:32.617Z,3.67
2022-10-25T21:16:08.803Z,3.30
2022-10-25T21:18:37.210Z,3.40
2022-10-25T21:21:06.825Z,3.50
2022-10-25T21:23:34.272Z,3.70
2022-10-25T21:26:02.974Z,3.50
2022-10-25T21:28:35.359Z,3.50
2022-10-25T21:31:10.382Z,3.35
2022-10-25T21:33:37.878Z,3.25
2022-10-25T21:36:10.098Z,3.50
2022-10-25T21:38:37.442Z,3.97
2022-10-25T21:41:09.420Z,3.22
2022-10-25T21:43:37.246Z,3.38
2022-10-25T21:46:05.551Z,3.20
2022-10-25T21:48:33.847Z,3.13
2022-10-25T21:51:01.188Z,3.45
2022-10-25T21:53:28.587Z,3.00
2022-10-25T21:56:05.157Z,2.80
2022-10-25T21:58:32.451Z,3.47
2022-10-25T22:00:59.731Z,3.50
2022-10-25T22:03:29.898Z,3.35
2022-10-25T22:05:57.638Z,3.15
2022-10-25T22:08:25.031Z,3.03
2022-10-25T22:13:31.976Z,2.95
2022-10-25T22:16:00.687Z,3.20
2022-10-25T22:18:28.017Z,3.00
2022-10-25T22:20:59.688Z,5.15
2022-10-25T22:23:27.922Z,3.10
2022-10-25T22:25:55.400Z,3.60
2022-10-25T22:28:22.740Z,3.38
2022-10-25T22:30:56.379Z,3.00
2022-10-25T22:33:23.684Z,3.35
2022-10-25T22:35:51.050Z,3.40
2022-10-25T22:38:18.604Z,3.30
2022-10-25T22:40:59.181Z,3.05
2022-10-25T22:43:27.499Z,3.05
2022-10-25T22:45:54.973Z,3.08
2022-10-25T22:48:22.465Z,2.80
2022-10-25T22:50:54.413Z,3.25
2022-10-25T22:53:21.821Z,2.92
2022-10-25T22:56:02.692Z,3.40
2022-10-25T22:58:32.589Z,3.10
2022-10-25T23:01:05.981Z,3.03
2022-10-25T23:03:37.343Z,2.87
2022-10-25T23:06:05.587Z,3.15
2022-10-25T23:08:33.429Z,3.08
2022-10-25T23:11:02.031Z,3.20
2022-10-25T23:13:33.449Z,2.88
2022-10-25T23:16:01.160Z,3.00
2022-10-25T23:18:28.479Z,2.90
2022-10-25T23:20:57.549Z,2.70
2022-10-25T23:23:25.382Z,2.90
2022-10-25T23:25:53.036Z,2.92
2022-10-25T23:28:20.666Z,2.50
2022-10-25T23:30:48.870Z,2.83
2022-10-25T23:33:17.327Z,2.65
2022-10-25T23:35:44.820Z,2.50
2022-10-25T23:38:12.686Z,2.65
2022-10-25T23:40:40.341Z,2.33
2022-10-25T23:43:08.311Z,2.80
2022-10-25T23:45:35.596Z,2.50
2022-10-25T23:48:02.879Z,2.88
2022-10-25T23:50:30.165Z,2.78
2022-10-25T23:52:57.740Z,2.75
2022-10-25T23:55:25.015Z,2.65
2022-10-25T23:57:58.563Z,2.65
